sensor_id;sensor_type;location;lat;lon;timestamp;P1;durP1;ratioP1;P2;durP2;ratioP2
51560;SDS011;37654;51.262;17.058;2023-01-29T00:01:02;14.20;;;7.35;;
51560;SDS011;37654;51.262;17.058;2023-01-29T00:03:27;28.65;;;10.45;;
51560;SDS011;37654;51.262;17.058;2023-01-29T00:05:53;25.67;;;9.20;;
51560;SDS011;37654;51.262;17.058;2023-01-29T00:08:18;71.68;;;20.05;;
51560;SDS011;37654;51.262;17.058;2023-01-29T00:10:43;66.55;;;17.40;;
51560;SDS011;37654;51.262;17.058;2023-01-29T00:13:09;69.25;;;21.13;;
51560;SDS011;37654;51.262;17.058;2023-01-29T00:15:34;80.07;;;22.85;;
51560;SDS011;37654;51.262;17.058;2023-01-29T00:17:59;81.00;;;23.02;;
51560;SDS011;37654;51.262;17.058;2023-01-29T00:20:24;84.78;;;25.17;;
51560;SDS011;37654;51.262;17.058;2023-01-29T00:22:50;39.25;;;13.45;;
51560;SDS011;37654;51.262;17.058;2023-01-29T00:25:15;63.70;;;20.13;;
51560;SDS011;37654;51.262;17.058;2023-01-29T00:27:40;72.10;;;19.55;;
51560;SDS011;37654;51.262;17.058;2023-01-29T00:30:06;49.88;;;14.55;;
51560;SDS011;37654;51.262;17.058;2023-01-29T00:32:37;35.15;;;13.52;;
51560;SDS011;37654;51.262;17.058;2023-01-29T00:35:02;24.42;;;10.52;;
51560;SDS011;37654;51.262;17.058;2023-01-29T00:37:28;21.52;;;8.73;;
51560;SDS011;37654;51.262;17.058;2023-01-29T00:39:53;30.40;;;11.73;;
51560;SDS011;37654;51.262;17.058;2023-01-29T00:42:18;25.10;;;10.85;;
51560;SDS011;37654;51.262;17.058;2023-01-29T00:44:58;20.13;;;8.93;;
51560;SDS011;37654;51.262;17.058;2023-01-29T00:47:23;17.20;;;8.63;;
51560;SDS011;37654;51.262;17.058;2023-01-29T00:49:58;20.30;;;10.43;;
51560;SDS011;37654;51.262;17.058;2023-01-29T00:52:23;21.23;;;10.75;;
51560;SDS011;37654;51.262;17.058;2023-01-29T00:54:49;25.50;;;10.65;;
51560;SDS011;37654;51.262;17.058;2023-01-29T00:57:14;20.65;;;11.00;;
51560;SDS011;37654;51.262;17.058;2023-01-29T00:59:39;28.25;;;11.75;;
51560;SDS011;37654;51.262;17.058;2023-01-29T01:02:04;30.58;;;15.65;;
51560;SDS011;37654;51.262;17.058;2023-01-29T01:04:45;40.30;;;16.35;;
51560;SDS011;37654;51.262;17.058;2023-01-29T01:07:10;53.03;;;23.25;;
51560;SDS011;37654;51.262;17.058;2023-01-29T01:09:35;60.80;;;25.10;;
51560;SDS011;37654;51.262;17.058;2023-01-29T01:12:14;39.33;;;17.00;;
51560;SDS011;37654;51.262;17.058;2023-01-29T01:14:40;36.72;;;15.77;;
51560;SDS011;37654;51.262;17.058;2023-01-29T01:17:07;64.45;;;24.15;;
51560;SDS011;37654;51.262;17.058;2023-01-29T01:19:32;43.13;;;18.45;;
51560;SDS011;37654;51.262;17.058;2023-01-29T01:21:58;33.28;;;14.30;;
51560;SDS011;37654;51.262;17.058;2023-01-29T01:24:23;25.02;;;12.88;;
51560;SDS011;37654;51.262;17.058;2023-01-29T01:26:48;31.90;;;14.13;;
51560;SDS011;37654;51.262;17.058;2023-01-29T01:29:13;23.80;;;12.85;;
51560;SDS011;37654;51.262;17.058;2023-01-29T01:31:39;28.83;;;13.55;;
51560;SDS011;37654;51.262;17.058;2023-01-29T01:34:04;29.77;;;12.93;;
51560;SDS011;37654;51.262;17.058;2023-01-29T01:36:29;27.40;;;13.32;;
51560;SDS011;37654;51.262;17.058;2023-01-29T01:38:56;23.40;;;11.50;;
51560;SDS011;37654;51.262;17.058;2023-01-29T01:41:21;30.85;;;13.20;;
51560;SDS011;37654;51.262;17.058;2023-01-29T01:43:49;28.80;;;12.88;;
51560;SDS011;37654;51.262;17.058;2023-01-29T01:46:14;24.85;;;12.57;;
51560;SDS011;37654;51.262;17.058;2023-01-29T01:48:40;25.02;;;12.15;;
51560;SDS011;37654;51.262;17.058;2023-01-29T01:51:06;31.48;;;14.15;;
51560;SDS011;37654;51.262;17.058;2023-01-29T01:53:41;27.67;;;14.00;;
51560;SDS011;37654;51.262;17.058;2023-01-29T01:56:12;28.30;;;14.73;;
51560;SDS011;37654;51.262;17.058;2023-01-29T01:58:42;33.03;;;15.07;;
51560;SDS011;37654;51.262;17.058;2023-01-29T02:01:08;28.13;;;13.57;;
51560;SDS011;37654;51.262;17.058;2023-01-29T02:03:39;24.40;;;12.98;;
51560;SDS011;37654;51.262;17.058;2023-01-29T02:06:19;36.17;;;13.95;;
51560;SDS011;37654;51.262;17.058;2023-01-29T02:09:00;24.55;;;12.93;;
51560;SDS011;37654;51.262;17.058;2023-01-29T02:11:40;22.25;;;11.18;;
51560;SDS011;37654;51.262;17.058;2023-01-29T02:14:05;24.17;;;11.82;;
51560;SDS011;37654;51.262;17.058;2023-01-29T02:16:32;24.98;;;12.38;;
51560;SDS011;37654;51.262;17.058;2023-01-29T02:18:57;25.48;;;10.93;;
51560;SDS011;37654;51.262;17.058;2023-01-29T02:26:39;21.63;;;11.25;;
51560;SDS011;37654;51.262;17.058;2023-01-29T02:29:06;20.40;;;10.90;;
51560;SDS011;37654;51.262;17.058;2023-01-29T02:34:35;18.48;;;10.10;;
51560;SDS011;37654;51.262;17.058;2023-01-29T02:37:14;23.98;;;11.95;;
51560;SDS011;37654;51.262;17.058;2023-01-29T02:42:33;18.65;;;10.35;;
51560;SDS011;37654;51.262;17.058;2023-01-29T02:47:45;28.70;;;13.65;;
51560;SDS011;37654;51.262;17.058;2023-01-29T02:50:18;36.00;;;14.35;;
51560;SDS011;37654;51.262;17.058;2023-01-29T02:52:49;42.38;;;17.02;;
51560;SDS011;37654;51.262;17.058;2023-01-29T02:57:46;43.90;;;16.65;;
51560;SDS011;37654;51.262;17.058;2023-01-29T03:00:32;28.40;;;12.55;;
51560;SDS011;37654;51.262;17.058;2023-01-29T03:03:05;32.97;;;12.77;;
51560;SDS011;37654;51.262;17.058;2023-01-29T03:08:15;25.65;;;10.60;;
51560;SDS011;37654;51.262;17.058;2023-01-29T03:10:43;27.15;;;12.90;;
51560;SDS011;37654;51.262;17.058;2023-01-29T03:13:12;24.55;;;11.00;;
51560;SDS011;37654;51.262;17.058;2023-01-29T03:16:22;25.63;;;11.00;;
51560;SDS011;37654;51.262;17.058;2023-01-29T03:18:29;20.00;;;10.63;;
51560;SDS011;37654;51.262;17.058;2023-01-29T03:20:57;20.25;;;10.93;;
51560;SDS011;37654;51.262;17.058;2023-01-29T03:23:26;21.77;;;11.60;;
51560;SDS011;37654;51.262;17.058;2023-01-29T03:26:06;21.80;;;10.68;;
51560;SDS011;37654;51.262;17.058;2023-01-29T03:28:45;22.25;;;12.52;;
51560;SDS011;37654;51.262;17.058;2023-01-29T03:31:25;26.95;;;12.77;;
51560;SDS011;37654;51.262;17.058;2023-01-29T03:34:07;25.83;;;12.20;;
51560;SDS011;37654;51.262;17.058;2023-01-29T03:39:04;33.47;;;15.52;;
51560;SDS011;37654;51.262;17.058;2023-01-29T03:41:32;29.15;;;14.00;;
51560;SDS011;37654;51.262;17.058;2023-01-29T03:46:47;20.55;;;11.02;;
51560;SDS011;37654;51.262;17.058;2023-01-29T03:49:18;23.67;;;12.40;;
51560;SDS011;37654;51.262;17.058;2023-01-29T03:54:18;24.20;;;11.97;;
51560;SDS011;37654;51.262;17.058;2023-01-29T04:01:52;22.17;;;11.70;;
51560;SDS011;37654;51.262;17.058;2023-01-29T04:06:47;18.95;;;10.40;;
51560;SDS011;37654;51.262;17.058;2023-01-29T04:09:39;22.75;;;10.63;;
51560;SDS011;37654;51.262;17.058;2023-01-29T04:12:03;20.67;;;10.80;;
51560;SDS011;37654;51.262;17.058;2023-01-29T04:14:29;22.15;;;11.27;;
51560;SDS011;37654;51.262;17.058;2023-01-29T04:16:56;17.75;;;9.95;;
51560;SDS011;37654;51.262;17.058;2023-01-29T04:19:23;21.98;;;11.40;;
51560;SDS011;37654;51.262;17.058;2023-01-29T04:21:49;18.67;;;10.43;;
51560;SDS011;37654;51.262;17.058;2023-01-29T04:24:17;21.38;;;10.13;;
51560;SDS011;37654;51.262;17.058;2023-01-29T04:29:15;17.33;;;10.07;;
51560;SDS011;37654;51.262;17.058;2023-01-29T04:31:45;17.23;;;8.68;;
51560;SDS011;37654;51.262;17.058;2023-01-29T04:34:18;15.57;;;7.75;;
51560;SDS011;37654;51.262;17.058;2023-01-29T04:41:54;20.63;;;9.23;;
51560;SDS011;37654;51.262;17.058;2023-01-29T04:49:43;14.13;;;8.38;;
51560;SDS011;37654;51.262;17.058;2023-01-29T04:52:20;13.48;;;7.18;;
51560;SDS011;37654;51.262;17.058;2023-01-29T04:54:50;18.42;;;8.85;;
51560;SDS011;37654;51.262;17.058;2023-01-29T04:57:19;17.42;;;8.40;;
51560;SDS011;37654;51.262;17.058;2023-01-29T04:59:55;16.83;;;8.48;;
51560;SDS011;37654;51.262;17.058;2023-01-29T05:02:21;17.88;;;8.73;;
51560;SDS011;37654;51.262;17.058;2023-01-29T05:04:48;17.45;;;8.95;;
51560;SDS011;37654;51.262;17.058;2023-01-29T05:07:14;17.02;;;8.63;;
51560;SDS011;37654;51.262;17.058;2023-01-29T05:09:42;15.57;;;8.40;;
51560;SDS011;37654;51.262;17.058;2023-01-29T05:12:10;17.90;;;8.88;;
51560;SDS011;37654;51.262;17.058;2023-01-29T05:14:37;25.05;;;12.70;;
51560;SDS011;37654;51.262;17.058;2023-01-29T05:17:04;25.75;;;11.35;;
51560;SDS011;37654;51.262;17.058;2023-01-29T05:19:32;35.42;;;15.63;;
51560;SDS011;37654;51.262;17.058;2023-01-29T05:21:58;37.13;;;14.80;;
51560;SDS011;37654;51.262;17.058;2023-01-29T05:24:24;29.92;;;13.52;;
51560;SDS011;37654;51.262;17.058;2023-01-29T05:26:50;27.02;;;12.07;;
51560;SDS011;37654;51.262;17.058;2023-01-29T05:29:30;28.92;;;11.13;;
51560;SDS011;37654;51.262;17.058;2023-01-29T05:31:56;29.27;;;12.27;;
51560;SDS011;37654;51.262;17.058;2023-01-29T05:34:21;35.55;;;15.57;;
51560;SDS011;37654;51.262;17.058;2023-01-29T05:36:46;32.38;;;13.55;;
51560;SDS011;37654;51.262;17.058;2023-01-29T05:39:12;24.02;;;10.68;;
51560;SDS011;37654;51.262;17.058;2023-01-29T05:41:37;24.30;;;11.65;;
51560;SDS011;37654;51.262;17.058;2023-01-29T05:44:03;20.33;;;9.77;;
51560;SDS011;37654;51.262;17.058;2023-01-29T05:46:28;16.92;;;8.77;;
51560;SDS011;37654;51.262;17.058;2023-01-29T05:48:53;17.48;;;8.70;;
51560;SDS011;37654;51.262;17.058;2023-01-29T05:51:19;16.67;;;9.25;;
51560;SDS011;37654;51.262;17.058;2023-01-29T05:53:44;21.10;;;10.48;;
51560;SDS011;37654;51.262;17.058;2023-01-29T05:56:09;16.98;;;10.52;;
51560;SDS011;37654;51.262;17.058;2023-01-29T05:58:34;18.38;;;9.93;;
51560;SDS011;37654;51.262;17.058;2023-01-29T06:01:22;20.25;;;10.10;;
51560;SDS011;37654;51.262;17.058;2023-01-29T06:03:45;20.53;;;10.63;;
51560;SDS011;37654;51.262;17.058;2023-01-29T06:06:11;18.40;;;10.10;;
51560;SDS011;37654;51.262;17.058;2023-01-29T06:08:36;19.63;;;10.13;;
51560;SDS011;37654;51.262;17.058;2023-01-29T06:11:02;19.27;;;10.48;;
51560;SDS011;37654;51.262;17.058;2023-01-29T06:13:28;15.95;;;9.15;;
51560;SDS011;37654;51.262;17.058;2023-01-29T06:15:54;17.60;;;9.68;;
51560;SDS011;37654;51.262;17.058;2023-01-29T06:18:19;18.60;;;9.68;;
51560;SDS011;37654;51.262;17.058;2023-01-29T06:20:44;15.68;;;9.27;;
51560;SDS011;37654;51.262;17.058;2023-01-29T06:23:09;19.45;;;10.52;;
51560;SDS011;37654;51.262;17.058;2023-01-29T06:25:35;29.33;;;13.45;;
51560;SDS011;37654;51.262;17.058;2023-01-29T06:28:00;30.60;;;15.43;;
51560;SDS011;37654;51.262;17.058;2023-01-29T06:30:25;21.17;;;11.77;;
51560;SDS011;37654;51.262;17.058;2023-01-29T06:32:55;32.50;;;14.32;;
51560;SDS011;37654;51.262;17.058;2023-01-29T06:35:22;19.67;;;10.82;;
51560;SDS011;37654;51.262;17.058;2023-01-29T06:37:48;20.30;;;10.88;;
51560;SDS011;37654;51.262;17.058;2023-01-29T06:40:13;21.42;;;11.05;;
51560;SDS011;37654;51.262;17.058;2023-01-29T06:42:38;16.45;;;9.75;;
51560;SDS011;37654;51.262;17.058;2023-01-29T06:45:03;21.75;;;10.25;;
51560;SDS011;37654;51.262;17.058;2023-01-29T06:47:29;18.17;;;10.43;;
51560;SDS011;37654;51.262;17.058;2023-01-29T06:49:54;19.40;;;10.45;;
51560;SDS011;37654;51.262;17.058;2023-01-29T06:52:19;19.73;;;10.65;;
51560;SDS011;37654;51.262;17.058;2023-01-29T06:54:45;17.58;;;9.85;;
51560;SDS011;37654;51.262;17.058;2023-01-29T06:57:10;18.63;;;11.40;;
51560;SDS011;37654;51.262;17.058;2023-01-29T06:59:35;18.67;;;9.98;;
51560;SDS011;37654;51.262;17.058;2023-01-29T07:02:01;18.65;;;9.98;;
51560;SDS011;37654;51.262;17.058;2023-01-29T07:04:27;16.30;;;9.25;;
51560;SDS011;37654;51.262;17.058;2023-01-29T07:06:52;21.08;;;9.32;;
51560;SDS011;37654;51.262;17.058;2023-01-29T07:09:17;13.27;;;8.70;;
51560;SDS011;37654;51.262;17.058;2023-01-29T07:11:43;19.67;;;8.82;;
51560;SDS011;37654;51.262;17.058;2023-01-29T07:14:08;17.92;;;9.00;;
51560;SDS011;37654;51.262;17.058;2023-01-29T07:16:33;18.08;;;8.20;;
51560;SDS011;37654;51.262;17.058;2023-01-29T07:18:59;21.33;;;9.88;;
51560;SDS011;37654;51.262;17.058;2023-01-29T07:21:24;14.40;;;8.38;;
51560;SDS011;37654;51.262;17.058;2023-01-29T07:23:49;17.33;;;8.80;;
51560;SDS011;37654;51.262;17.058;2023-01-29T07:26:14;15.48;;;8.32;;
51560;SDS011;37654;51.262;17.058;2023-01-29T07:28:40;16.50;;;8.60;;
51560;SDS011;37654;51.262;17.058;2023-01-29T07:31:06;17.15;;;9.15;;
51560;SDS011;37654;51.262;17.058;2023-01-29T07:33:31;17.10;;;9.05;;
51560;SDS011;37654;51.262;17.058;2023-01-29T07:35:56;22.13;;;9.98;;
51560;SDS011;37654;51.262;17.058;2023-01-29T07:38:22;23.38;;;10.68;;
51560;SDS011;37654;51.262;17.058;2023-01-29T07:40:47;20.02;;;9.95;;
51560;SDS011;37654;51.262;17.058;2023-01-29T07:43:13;21.08;;;9.60;;
51560;SDS011;37654;51.262;17.058;2023-01-29T07:45:38;20.23;;;10.52;;
51560;SDS011;37654;51.262;17.058;2023-01-29T07:48:04;19.63;;;10.13;;
51560;SDS011;37654;51.262;17.058;2023-01-29T07:50:30;19.77;;;9.10;;
51560;SDS011;37654;51.262;17.058;2023-01-29T07:52:56;19.90;;;9.70;;
51560;SDS011;37654;51.262;17.058;2023-01-29T07:55:21;20.38;;;10.43;;
51560;SDS011;37654;51.262;17.058;2023-01-29T07:57:47;17.27;;;9.20;;
51560;SDS011;37654;51.262;17.058;2023-01-29T08:00:13;16.15;;;8.88;;
51560;SDS011;37654;51.262;17.058;2023-01-29T08:02:39;23.15;;;10.23;;
51560;SDS011;37654;51.262;17.058;2023-01-29T08:05:04;18.95;;;9.57;;
51560;SDS011;37654;51.262;17.058;2023-01-29T08:07:29;16.73;;;8.98;;
51560;SDS011;37654;51.262;17.058;2023-01-29T08:09:55;23.30;;;8.95;;
51560;SDS011;37654;51.262;17.058;2023-01-29T08:12:20;17.73;;;9.10;;
51560;SDS011;37654;51.262;17.058;2023-01-29T08:14:46;19.88;;;10.30;;
51560;SDS011;37654;51.262;17.058;2023-01-29T08:17:12;21.98;;;12.07;;
51560;SDS011;37654;51.262;17.058;2023-01-29T08:19:37;16.92;;;9.13;;
51560;SDS011;37654;51.262;17.058;2023-01-29T08:22:02;20.10;;;10.20;;
51560;SDS011;37654;51.262;17.058;2023-01-29T08:24:28;18.75;;;9.25;;
51560;SDS011;37654;51.262;17.058;2023-01-29T08:26:53;19.27;;;9.93;;
51560;SDS011;37654;51.262;17.058;2023-01-29T08:29:18;22.55;;;10.98;;
51560;SDS011;37654;51.262;17.058;2023-01-29T08:31:44;17.63;;;9.80;;
51560;SDS011;37654;51.262;17.058;2023-01-29T08:34:09;18.02;;;9.43;;
51560;SDS011;37654;51.262;17.058;2023-01-29T08:36:34;19.10;;;9.27;;
51560;SDS011;37654;51.262;17.058;2023-01-29T08:39:00;21.95;;;9.23;;
51560;SDS011;37654;51.262;17.058;2023-01-29T08:41:25;17.70;;;8.90;;
51560;SDS011;37654;51.262;17.058;2023-01-29T08:43:50;16.08;;;9.80;;
51560;SDS011;37654;51.262;17.058;2023-01-29T08:46:16;17.90;;;9.68;;
51560;SDS011;37654;51.262;17.058;2023-01-29T08:48:41;16.50;;;9.23;;
51560;SDS011;37654;51.262;17.058;2023-01-29T08:51:06;19.35;;;9.95;;
51560;SDS011;37654;51.262;17.058;2023-01-29T08:53:31;16.67;;;9.18;;
51560;SDS011;37654;51.262;17.058;2023-01-29T08:55:57;23.33;;;10.27;;
51560;SDS011;37654;51.262;17.058;2023-01-29T08:58:22;17.58;;;10.23;;
51560;SDS011;37654;51.262;17.058;2023-01-29T09:00:47;22.92;;;10.63;;
51560;SDS011;37654;51.262;17.058;2023-01-29T09:03:13;17.75;;;10.35;;
51560;SDS011;37654;51.262;17.058;2023-01-29T09:05:39;18.60;;;9.77;;
51560;SDS011;37654;51.262;17.058;2023-01-29T09:08:05;16.25;;;9.55;;
51560;SDS011;37654;51.262;17.058;2023-01-29T09:10:30;20.70;;;11.63;;
51560;SDS011;37654;51.262;17.058;2023-01-29T09:12:56;24.23;;;11.02;;
51560;SDS011;37654;51.262;17.058;2023-01-29T09:15:21;14.98;;;9.18;;
51560;SDS011;37654;51.262;17.058;2023-01-29T09:17:47;17.67;;;10.40;;
51560;SDS011;37654;51.262;17.058;2023-01-29T09:20:13;17.02;;;9.30;;
51560;SDS011;37654;51.262;17.058;2023-01-29T09:22:38;15.90;;;9.98;;
51560;SDS011;37654;51.262;17.058;2023-01-29T09:25:04;16.70;;;10.18;;
51560;SDS011;37654;51.262;17.058;2023-01-29T09:27:29;19.50;;;11.13;;
51560;SDS011;37654;51.262;17.058;2023-01-29T09:29:55;19.95;;;11.02;;
51560;SDS011;37654;51.262;17.058;2023-01-29T09:32:20;17.23;;;10.33;;
51560;SDS011;37654;51.262;17.058;2023-01-29T09:34:45;18.83;;;10.43;;
51560;SDS011;37654;51.262;17.058;2023-01-29T09:37:10;22.00;;;10.70;;
51560;SDS011;37654;51.262;17.058;2023-01-29T09:39:36;20.90;;;10.53;;
51560;SDS011;37654;51.262;17.058;2023-01-29T09:42:11;16.25;;;9.50;;
51560;SDS011;37654;51.262;17.058;2023-01-29T09:44:45;19.85;;;9.20;;
51560;SDS011;37654;51.262;17.058;2023-01-29T09:47:14;16.92;;;9.35;;
51560;SDS011;37654;51.262;17.058;2023-01-29T09:49:46;17.55;;;10.43;;
51560;SDS011;37654;51.262;17.058;2023-01-29T09:52:19;16.88;;;9.57;;
51560;SDS011;37654;51.262;17.058;2023-01-29T09:57:18;17.30;;;10.63;;
51560;SDS011;37654;51.262;17.058;2023-01-29T09:59:44;17.08;;;9.88;;
51560;SDS011;37654;51.262;17.058;2023-01-29T10:02:15;16.20;;;9.57;;
51560;SDS011;37654;51.262;17.058;2023-01-29T10:07:30;22.80;;;9.98;;
51560;SDS011;37654;51.262;17.058;2023-01-29T10:10:12;14.15;;;8.88;;
51560;SDS011;37654;51.262;17.058;2023-01-29T10:25:21;15.23;;;9.68;;
51560;SDS011;37654;51.262;17.058;2023-01-29T10:27:53;21.92;;;10.70;;
51560;SDS011;37654;51.262;17.058;2023-01-29T10:32:55;13.75;;;9.07;;
51560;SDS011;37654;51.262;17.058;2023-01-29T10:35:23;19.88;;;11.10;;
51560;SDS011;37654;51.262;17.058;2023-01-29T10:37:51;17.02;;;9.98;;
51560;SDS011;37654;51.262;17.058;2023-01-29T10:40:17;17.95;;;9.63;;
51560;SDS011;37654;51.262;17.058;2023-01-29T10:45:35;20.50;;;10.40;;
51560;SDS011;37654;51.262;17.058;2023-01-29T10:50:48;17.20;;;10.05;;
51560;SDS011;37654;51.262;17.058;2023-01-29T10:58:29;18.95;;;9.60;;
51560;SDS011;37654;51.262;17.058;2023-01-29T11:00:55;21.80;;;10.95;;
51560;SDS011;37654;51.262;17.058;2023-01-29T11:03:22;21.52;;;10.23;;
51560;SDS011;37654;51.262;17.058;2023-01-29T11:08:20;21.88;;;11.48;;
51560;SDS011;37654;51.262;17.058;2023-01-29T11:10:55;26.58;;;10.30;;
51560;SDS011;37654;51.262;17.058;2023-01-29T11:13:23;21.60;;;10.70;;
51560;SDS011;37654;51.262;17.058;2023-01-29T11:15:51;22.33;;;11.30;;
51560;SDS011;37654;51.262;17.058;2023-01-29T11:18:16;19.13;;;10.85;;
51560;SDS011;37654;51.262;17.058;2023-01-29T11:20:42;19.98;;;11.05;;
51560;SDS011;37654;51.262;17.058;2023-01-29T11:25:51;20.13;;;10.57;;
51560;SDS011;37654;51.262;17.058;2023-01-29T11:28:16;21.52;;;11.57;;
51560;SDS011;37654;51.262;17.058;2023-01-29T11:30:59;23.13;;;11.57;;
51560;SDS011;37654;51.262;17.058;2023-01-29T11:33:24;23.50;;;11.90;;
51560;SDS011;37654;51.262;17.058;2023-01-29T11:35:49;24.25;;;12.13;;
51560;SDS011;37654;51.262;17.058;2023-01-29T11:38:23;23.40;;;10.55;;
51560;SDS011;37654;51.262;17.058;2023-01-29T11:40:49;25.00;;;10.43;;
51560;SDS011;37654;51.262;17.058;2023-01-29T11:43:19;22.02;;;11.77;;
51560;SDS011;37654;51.262;17.058;2023-01-29T11:45:45;20.92;;;9.90;;
51560;SDS011;37654;51.262;17.058;2023-01-29T11:48:15;22.02;;;10.52;;
51560;SDS011;37654;51.262;17.058;2023-01-29T11:50:41;20.48;;;10.43;;
51560;SDS011;37654;51.262;17.058;2023-01-29T11:53:16;22.60;;;10.77;;
51560;SDS011;37654;51.262;17.058;2023-01-29T11:55:46;21.05;;;9.95;;
51560;SDS011;37654;51.262;17.058;2023-01-29T11:58:12;20.70;;;9.60;;
51560;SDS011;37654;51.262;17.058;2023-01-29T12:00:41;22.13;;;9.63;;
51560;SDS011;37654;51.262;17.058;2023-01-29T12:05:53;22.85;;;12.02;;
51560;SDS011;37654;51.262;17.058;2023-01-29T12:08:20;22.73;;;11.02;;
51560;SDS011;37654;51.262;17.058;2023-01-29T12:10:47;19.08;;;11.18;;
51560;SDS011;37654;51.262;17.058;2023-01-29T12:15:42;26.67;;;11.75;;
51560;SDS011;37654;51.262;17.058;2023-01-29T12:20:49;19.88;;;10.38;;
51560;SDS011;37654;51.262;17.058;2023-01-29T12:25:59;19.33;;;11.27;;
51560;SDS011;37654;51.262;17.058;2023-01-29T12:33:40;24.40;;;11.85;;
51560;SDS011;37654;51.262;17.058;2023-01-29T12:36:11;25.73;;;12.18;;
51560;SDS011;37654;51.262;17.058;2023-01-29T12:38:38;20.95;;;10.43;;
51560;SDS011;37654;51.262;17.058;2023-01-29T12:41:07;17.10;;;8.73;;
51560;SDS011;37654;51.262;17.058;2023-01-29T12:43:41;21.95;;;10.95;;
51560;SDS011;37654;51.262;17.058;2023-01-29T12:46:09;17.80;;;9.65;;
51560;SDS011;37654;51.262;17.058;2023-01-29T12:48:38;19.25;;;9.50;;
51560;SDS011;37654;51.262;17.058;2023-01-29T12:51:06;16.33;;;8.75;;
51560;SDS011;37654;51.262;17.058;2023-01-29T12:56:18;24.85;;;10.05;;
51560;SDS011;37654;51.262;17.058;2023-01-29T12:58:46;19.73;;;10.10;;
51560;SDS011;37654;51.262;17.058;2023-01-29T13:03:59;21.25;;;9.30;;
51560;SDS011;37654;51.262;17.058;2023-01-29T13:06:27;21.38;;;9.68;;
51560;SDS011;37654;51.262;17.058;2023-01-29T13:08:55;17.30;;;9.60;;
51560;SDS011;37654;51.262;17.058;2023-01-29T13:13:55;23.48;;;10.50;;
51560;SDS011;37654;51.262;17.058;2023-01-29T13:16:27;23.17;;;11.02;;
51560;SDS011;37654;51.262;17.058;2023-01-29T13:19:01;22.85;;;10.93;;
51560;SDS011;37654;51.262;17.058;2023-01-29T13:21:33;18.25;;;8.75;;
51560;SDS011;37654;51.262;17.058;2023-01-29T13:24:19;21.75;;;9.52;;
51560;SDS011;37654;51.262;17.058;2023-01-29T13:26:45;18.95;;;8.40;;
51560;SDS011;37654;51.262;17.058;2023-01-29T13:31:46;21.08;;;9.00;;
51560;SDS011;37654;51.262;17.058;2023-01-29T13:36:56;14.85;;;7.13;;
51560;SDS011;37654;51.262;17.058;2023-01-29T13:39:23;24.60;;;9.63;;
51560;SDS011;37654;51.262;17.058;2023-01-29T13:41:50;20.80;;;9.48;;
51560;SDS011;37654;51.262;17.058;2023-01-29T13:44:18;21.38;;;9.40;;
51560;SDS011;37654;51.262;17.058;2023-01-29T13:49:25;18.73;;;9.20;;
51560;SDS011;37654;51.262;17.058;2023-01-29T13:51:52;19.52;;;9.57;;
51560;SDS011;37654;51.262;17.058;2023-01-29T13:54:19;24.77;;;11.05;;
51560;SDS011;37654;51.262;17.058;2023-01-29T13:56:57;19.77;;;10.25;;
51560;SDS011;37654;51.262;17.058;2023-01-29T14:02:03;22.30;;;10.75;;
51560;SDS011;37654;51.262;17.058;2023-01-29T14:04:42;18.23;;;8.68;;
51560;SDS011;37654;51.262;17.058;2023-01-29T14:07:37;20.83;;;10.20;;
51560;SDS011;37654;51.262;17.058;2023-01-29T14:12:32;20.95;;;10.68;;
51560;SDS011;37654;51.262;17.058;2023-01-29T14:17:38;21.92;;;9.68;;
51560;SDS011;37654;51.262;17.058;2023-01-29T14:22:43;26.05;;;9.95;;
51560;SDS011;37654;51.262;17.058;2023-01-29T14:25:14;20.23;;;10.05;;
51560;SDS011;37654;51.262;17.058;2023-01-29T14:27:40;18.55;;;8.82;;
51560;SDS011;37654;51.262;17.058;2023-01-29T14:30:12;22.23;;;10.35;;
51560;SDS011;37654;51.262;17.058;2023-01-29T14:32:40;21.77;;;11.68;;
51560;SDS011;37654;51.262;17.058;2023-01-29T14:35:21;23.58;;;10.88;;
51560;SDS011;37654;51.262;17.058;2023-01-29T14:37:47;22.80;;;11.15;;
51560;SDS011;37654;51.262;17.058;2023-01-29T14:52:51;22.42;;;10.32;;
51560;SDS011;37654;51.262;17.058;2023-01-29T14:57:46;26.00;;;12.70;;
51560;SDS011;37654;51.262;17.058;2023-01-29T15:00:24;24.50;;;12.32;;
51560;SDS011;37654;51.262;17.058;2023-01-29T15:02:50;28.55;;;13.27;;
51560;SDS011;37654;51.262;17.058;2023-01-29T15:05:19;24.42;;;12.23;;
51560;SDS011;37654;51.262;17.058;2023-01-29T15:07:55;28.85;;;13.73;;
51560;SDS011;37654;51.262;17.058;2023-01-29T15:10:26;29.70;;;14.23;;
51560;SDS011;37654;51.262;17.058;2023-01-29T15:12:59;30.27;;;14.73;;
51560;SDS011;37654;51.262;17.058;2023-01-29T15:18:08;31.63;;;14.88;;
51560;SDS011;37654;51.262;17.058;2023-01-29T15:20:37;30.25;;;16.33;;
51560;SDS011;37654;51.262;17.058;2023-01-29T15:23:03;28.35;;;13.05;;
51560;SDS011;37654;51.262;17.058;2023-01-29T15:25:35;30.13;;;14.35;;
51560;SDS011;37654;51.262;17.058;2023-01-29T15:28:01;28.42;;;13.15;;
51560;SDS011;37654;51.262;17.058;2023-01-29T15:30:31;24.10;;;13.30;;
51560;SDS011;37654;51.262;17.058;2023-01-29T15:32:57;26.45;;;13.88;;
51560;SDS011;37654;51.262;17.058;2023-01-29T15:40:31;30.27;;;15.32;;
51560;SDS011;37654;51.262;17.058;2023-01-29T15:42:57;29.48;;;14.75;;
51560;SDS011;37654;51.262;17.058;2023-01-29T15:45:23;25.52;;;13.35;;
51560;SDS011;37654;51.262;17.058;2023-01-29T15:47:50;29.17;;;14.13;;
51560;SDS011;37654;51.262;17.058;2023-01-29T15:50:16;29.10;;;14.82;;
51560;SDS011;37654;51.262;17.058;2023-01-29T15:52:41;29.38;;;15.60;;
51560;SDS011;37654;51.262;17.058;2023-01-29T15:55:08;31.33;;;15.20;;
51560;SDS011;37654;51.262;17.058;2023-01-29T15:57:38;30.52;;;14.30;;
51560;SDS011;37654;51.262;17.058;2023-01-29T16:00:05;29.30;;;15.10;;
51560;SDS011;37654;51.262;17.058;2023-01-29T16:02:35;28.85;;;15.85;;
51560;SDS011;37654;51.262;17.058;2023-01-29T16:05:02;31.35;;;15.65;;
51560;SDS011;37654;51.262;17.058;2023-01-29T16:07:28;28.90;;;15.05;;
51560;SDS011;37654;51.262;17.058;2023-01-29T16:09:53;32.42;;;15.70;;
51560;SDS011;37654;51.262;17.058;2023-01-29T16:12:19;33.72;;;15.38;;
51560;SDS011;37654;51.262;17.058;2023-01-29T16:14:44;33.10;;;16.80;;
51560;SDS011;37654;51.262;17.058;2023-01-29T16:19:56;29.15;;;14.63;;
51560;SDS011;37654;51.262;17.058;2023-01-29T16:22:21;27.55;;;15.35;;
51560;SDS011;37654;51.262;17.058;2023-01-29T16:24:47;28.00;;;14.65;;
51560;SDS011;37654;51.262;17.058;2023-01-29T16:27:17;35.47;;;16.33;;
51560;SDS011;37654;51.262;17.058;2023-01-29T16:29:42;29.92;;;16.33;;
51560;SDS011;37654;51.262;17.058;2023-01-29T16:32:08;34.25;;;15.10;;
51560;SDS011;37654;51.262;17.058;2023-01-29T16:34:39;29.40;;;15.40;;
51560;SDS011;37654;51.262;17.058;2023-01-29T16:37:17;32.78;;;17.52;;
51560;SDS011;37654;51.262;17.058;2023-01-29T16:39:44;31.50;;;15.57;;
51560;SDS011;37654;51.262;17.058;2023-01-29T16:47:25;29.92;;;17.23;;
51560;SDS011;37654;51.262;17.058;2023-01-29T16:49:52;34.28;;;17.40;;
51560;SDS011;37654;51.262;17.058;2023-01-29T16:52:22;33.33;;;16.63;;
51560;SDS011;37654;51.262;17.058;2023-01-29T16:54:48;37.55;;;18.02;;